createdAt,value
2022-09-20T00:01:54.819Z,57.49
2022-09-20T00:04:21.911Z,57.88
2022-09-20T00:06:48.753Z,57.51
2022-09-20T00:09:15.653Z,57.63
2022-09-20T00:11:45.643Z,57.83
2022-09-20T00:14:18.654Z,57.64
2022-09-20T00:16:45.580Z,57.76
2022-09-20T00:19:23.153Z,57.70
2022-09-20T00:21:58.015Z,57.66
2022-09-20T00:24:27.077Z,57.99
2022-09-20T00:26:56.256Z,57.96
2022-09-20T00:29:28.230Z,57.81
2022-09-20T00:31:58.408Z,57.87
2022-09-20T00:34:43.839Z,57.88
2022-09-20T00:37:12.416Z,57.68
2022-09-20T00:39:39.289Z,57.72
2022-09-20T00:42:08.575Z,57.84
2022-09-20T00:45:03.719Z,57.87
2022-09-20T00:47:39.806Z,57.60
2022-09-20T00:50:38.201Z,57.74
2022-09-20T00:53:27.460Z,58.03
2022-09-20T00:56:29.797Z,57.99
2022-09-20T00:59:19.835Z,58.00
2022-09-20T01:02:03.799Z,57.67
2022-09-20T01:04:30.813Z,57.90
2022-09-20T01:07:04.591Z,57.92
2022-09-20T01:09:36.058Z,57.94
2022-09-20T01:12:14.384Z,57.81
2022-09-20T01:14:44.122Z,57.71
2022-09-20T01:17:16.508Z,57.58
2022-09-20T01:19:50.102Z,58.06
2022-09-20T01:22:23.705Z,58.19
2022-09-20T01:25:21.725Z,57.70
2022-09-20T01:28:08.228Z,57.95
2022-09-20T01:30:59.597Z,58.20
2022-09-20T01:33:39.779Z,58.02
2022-09-20T01:36:29.860Z,57.81
2022-09-20T01:39:01.532Z,58.04
2022-09-20T01:41:44.681Z,57.96
2022-09-20T01:44:40.620Z,57.78
2022-09-20T01:47:25.248Z,57.94
2022-09-20T01:50:11.837Z,58.08
2022-09-20T01:53:13.050Z,58.27
2022-09-20T01:56:13.775Z,57.92
2022-09-20T01:58:43.274Z,57.73
2022-09-20T02:01:55.737Z,57.82
2022-09-20T02:04:45.436Z,58.15
2022-09-20T02:07:31.101Z,57.91
2022-09-20T02:10:19.786Z,58.13
2022-09-20T02:12:56.648Z,58.10
2022-09-20T02:15:36.604Z,57.61
2022-09-20T02:18:20.229Z,58.02
2022-09-20T02:21:02.505Z,58.08
2022-09-20T02:23:29.369Z,57.92
2022-09-20T02:26:14.667Z,57.90
2022-09-20T02:28:57.224Z,58.19
2022-09-20T02:31:30.617Z,58.03
2022-09-20T02:34:28.677Z,57.97
2022-09-20T02:37:02.956Z,58.30
2022-09-20T02:39:47.384Z,58.03
2022-09-20T02:42:38.187Z,57.74
2022-09-20T02:45:21.139Z,58.20
2022-09-20T02:47:50.439Z,57.84
2022-09-20T02:50:36.782Z,58.03
2022-09-20T02:53:33.009Z,58.13
2022-09-20T02:56:26.435Z,58.09
2022-09-20T02:59:19.628Z,58.31
2022-09-20T03:02:34.366Z,58.25
2022-09-20T03:05:39.073Z,58.31
2022-09-20T03:08:47.622Z,58.27
2022-09-20T03:11:47.175Z,58.02
2022-09-20T03:14:30.717Z,57.98
2022-09-20T03:17:09.889Z,58.08
2022-09-20T03:20:03.782Z,58.03
2022-09-20T03:22:58.532Z,58.21
2022-09-20T03:26:03.187Z,57.91
2022-09-20T03:28:56.238Z,57.94
2022-09-20T03:31:40.638Z,57.95
2022-09-20T03:34:28.341Z,58.16
2022-09-20T03:37:15.327Z,58.08
2022-09-20T03:40:22.199Z,58.01
2022-09-20T03:43:00.813Z,58.24
2022-09-20T03:46:00.175Z,58.08
2022-09-20T03:48:50.567Z,57.99
2022-09-20T03:51:33.583Z,58.09
2022-09-20T03:54:42.038Z,57.89
2022-09-20T03:57:20.051Z,58.44
2022-09-20T04:00:01.806Z,57.96
2022-09-20T04:02:29.367Z,58.24
2022-09-20T04:05:10.500Z,58.28
2022-09-20T04:08:17.242Z,58.32
2022-09-20T04:11:13.145Z,58.05
2022-09-20T04:13:51.117Z,58.32
2022-09-20T04:16:43.221Z,58.08
2022-09-20T04:20:00.976Z,57.98
2022-09-20T04:22:29.821Z,57.98
2022-09-20T04:25:27.818Z,58.28
2022-09-20T04:28:04.690Z,58.18
2022-09-20T04:30:39.094Z,58.34
2022-09-20T04:33:18.646Z,57.91
2022-09-20T04:36:28.994Z,58.39
2022-09-20T04:39:23.929Z,58.14
2022-09-20T04:42:22.004Z,58.41
2022-09-20T04:45:42.774Z,58.07
2022-09-20T04:48:40.585Z,58.10
2022-09-20T04:51:19.698Z,58.58
2022-09-20T04:54:07.614Z,58.55
2022-09-20T04:56:46.065Z,58.19
2022-09-20T04:59:55.566Z,58.36
2022-09-20T05:02:52.796Z,58.42
2022-09-20T05:05:28.529Z,57.97
2022-09-20T05:08:32.810Z,58.46
2022-09-20T05:11:02.683Z,58.37
2022-09-20T05:13:42.203Z,58.47
2022-09-20T05:16:23.179Z,58.09
2022-09-20T05:19:08.849Z,58.47
2022-09-20T05:21:57.082Z,58.47
2022-09-20T05:24:42.727Z,58.24
2022-09-20T05:27:31.368Z,58.14
2022-09-20T05:30:10.433Z,58.47
2022-09-20T05:33:00.936Z,58.27
2022-09-20T05:35:39.189Z,58.31
2022-09-20T05:38:19.854Z,58.38
2022-09-20T05:41:07.662Z,58.52
2022-09-20T05:43:42.908Z,58.50
2022-09-20T05:46:31.324Z,58.49
2022-09-20T05:49:24.983Z,58.07
2022-09-20T05:52:06.945Z,58.20
2022-09-20T05:54:49.342Z,58.58
2022-09-20T05:58:00.717Z,58.61
2022-09-20T06:00:38.596Z,58.38
2022-09-20T06:03:30.632Z,58.58
2022-09-20T06:06:19.032Z,58.44
2022-09-20T06:09:25.054Z,58.38
2022-09-20T06:12:07.091Z,58.58
2022-09-20T06:15:12.417Z,58.36
2022-09-20T06:17:48.209Z,58.25
2022-09-20T06:20:33.808Z,58.66
2022-09-20T06:23:03.494Z,58.54
2022-09-20T06:25:34.745Z,58.72
2022-09-20T06:28:08.204Z,58.61
2022-09-20T06:30:43.480Z,58.52
2022-09-20T06:33:32.347Z,58.39
2022-09-20T06:36:29.679Z,58.33
2022-09-20T06:39:30.343Z,58.58
2022-09-20T06:41:58.067Z,58.66
2022-09-20T06:44:24.973Z,58.26
2022-09-20T06:46:54.692Z,58.61
2022-09-20T06:49:22.394Z,58.56
2022-09-20T06:51:52.502Z,58.66
2022-09-20T06:54:21.327Z,58.30
2022-09-20T06:56:50.181Z,58.33
2022-09-20T06:59:17.265Z,58.48
2022-09-20T07:01:44.701Z,58.39
2022-09-20T07:04:11.795Z,58.63
2022-09-20T07:06:38.739Z,58.41
2022-09-20T07:09:06.554Z,58.40
2022-09-20T07:11:34.361Z,58.45
2022-09-20T07:14:01.894Z,58.36
2022-09-20T07:16:29.447Z,58.36
2022-09-20T07:18:56.961Z,58.72
2022-09-20T07:21:24.423Z,58.51
2022-09-20T07:23:51.489Z,58.49
2022-09-20T07:26:28.449Z,58.31
2022-09-20T07:28:57.336Z,58.49
2022-09-20T07:31:26.588Z,58.66
2022-09-20T07:33:53.761Z,58.61
2022-09-20T07:36:21.023Z,58.30
2022-09-20T07:38:53.162Z,58.34
2022-09-20T07:41:22.838Z,58.76
2022-09-20T07:43:51.062Z,58.47
2022-09-20T07:46:18.223Z,58.16
2022-09-20T07:48:45.065Z,58.59
2022-09-20T07:51:33.716Z,58.42
2022-09-20T07:54:00.743Z,58.11
2022-09-20T07:56:27.724Z,58.13
2022-09-20T07:58:54.804Z,58.28
2022-09-20T08:01:22.810Z,58.60
2022-09-20T08:03:50.079Z,58.27
2022-09-20T08:06:18.533Z,58.40
2022-09-20T08:08:45.405Z,58.22
2022-09-20T08:11:16.206Z,58.39
2022-09-20T08:14:07.734Z,57.98
2022-09-20T08:16:41.934Z,58.14
2022-09-20T08:19:10.795Z,58.10
2022-09-20T08:21:39.797Z,58.48
2022-09-20T08:24:06.869Z,58.13
2022-09-20T08:26:35.879Z,58.58
2022-09-20T08:29:05.854Z,58.08
2022-09-20T08:31:36.866Z,57.99
2022-09-20T08:34:06.690Z,57.93
2022-09-20T08:36:36.978Z,58.14
2022-09-20T08:42:04.645Z,58.18
2022-09-20T08:44:35.686Z,58.01
2022-09-20T08:47:25.407Z,57.95
2022-09-20T08:49:57.389Z,58.00
2022-09-20T08:52:37.650Z,58.28
2022-09-20T08:55:17.879Z,57.94
2022-09-20T08:57:50.287Z,57.91
2022-09-20T09:00:20.174Z,57.92
2022-09-20T09:02:47.582Z,57.69
2022-09-20T09:05:28.321Z,57.89
2022-09-20T09:07:55.374Z,57.82
2022-09-20T09:10:22.335Z,58.11
2022-09-20T09:12:49.820Z,57.77
2022-09-20T09:15:34.122Z,57.84
2022-09-20T09:18:01.426Z,57.89
2022-09-20T09:20:28.408Z,57.86
2022-09-20T09:23:05.046Z,58.09
2022-09-20T09:25:37.356Z,57.50
2022-09-20T09:28:14.439Z,57.88
2022-09-20T09:30:46.982Z,57.90
2022-09-20T09:33:18.416Z,57.89
2022-09-20T09:35:56.533Z,57.71
2022-09-20T09:38:30.307Z,57.65
2022-09-20T09:41:05.988Z,57.60
2022-09-20T09:43:35.849Z,57.54
2022-09-20T09:46:23.836Z,57.54
2022-09-20T09:49:10.092Z,57.31
2022-09-20T09:51:39.174Z,57.26
2022-09-20T09:54:08.194Z,57.47
2022-09-20T09:57:24.516Z,57.42
2022-09-20T10:00:06.586Z,57.80
2022-09-20T10:02:48.161Z,57.80
2022-09-20T10:05:22.497Z,57.69
2022-09-20T10:07:59.688Z,57.32
2022-09-20T10:10:36.128Z,57.41
2022-09-20T10:13:29.695Z,57.74
2022-09-20T10:16:08.199Z,57.39
2022-09-20T10:18:53.807Z,57.44
2022-09-20T10:21:33.093Z,57.77
2022-09-20T10:24:04.500Z,57.26
2022-09-20T10:26:53.402Z,57.76
2022-09-20T10:29:39.262Z,57.41
2022-09-20T10:32:14.932Z,57.82
2022-09-20T10:34:57.315Z,57.93
2022-09-20T10:37:33.187Z,57.73
2022-09-20T10:40:51.055Z,57.90
2022-09-20T10:43:43.708Z,57.74
2022-09-20T10:46:31.991Z,57.76
2022-09-20T10:49:31.050Z,57.61
2022-09-20T10:52:13.031Z,57.69
2022-09-20T10:55:18.839Z,57.85
2022-09-20T10:57:55.771Z,57.44
2022-09-20T11:01:04.242Z,57.72
2022-09-20T11:04:01.221Z,57.35
2022-09-20T11:06:46.403Z,57.41
2022-09-20T11:09:19.674Z,57.27
2022-09-20T11:11:50.723Z,57.61
2022-09-20T11:14:22.970Z,57.43
2022-09-20T11:17:12.793Z,57.66
2022-09-20T11:19:42.734Z,57.61
2022-09-20T11:22:22.689Z,57.16
2022-09-20T11:24:58.946Z,57.39
2022-09-20T11:27:37.788Z,57.35
2022-09-20T11:30:13.391Z,57.43
2022-09-20T11:32:53.188Z,57.33
2022-09-20T11:35:33.411Z,57.19
2022-09-20T11:38:09.507Z,57.59
2022-09-20T11:40:46.777Z,57.58
2022-09-20T11:43:15.775Z,56.92
2022-09-20T11:45:44.446Z,57.24
2022-09-20T11:48:29.512Z,57.47
2022-09-20T11:51:15.109Z,57.31
2022-09-20T11:54:06.520Z,57.47
2022-09-20T11:56:35.319Z,57.26
2022-09-20T11:59:07.276Z,57.17
2022-09-20T12:01:43.544Z,57.18
2022-09-20T12:04:38.983Z,56.83
2022-09-20T12:07:37.145Z,57.10
2022-09-20T12:10:24.694Z,57.06
2022-09-20T12:13:00.520Z,56.81
2022-09-20T12:15:32.279Z,57.04
2022-09-20T12:17:59.162Z,57.02
2022-09-20T12:20:35.131Z,57.00
2022-09-20T12:23:40.314Z,57.16
2022-09-20T12:26:20.408Z,57.06
2022-09-20T12:28:58.228Z,56.79
2022-09-20T12:31:34.245Z,56.77
2022-09-20T12:34:15.674Z,57.28
2022-09-20T12:36:43.822Z,56.82
2022-09-20T12:39:17.602Z,56.70
2022-09-20T12:41:54.411Z,56.93
2022-09-20T12:44:49.142Z,57.06
2022-09-20T12:47:23.022Z,56.84
2022-09-20T12:50:13.642Z,56.60
2022-09-20T12:53:04.093Z,56.97
2022-09-20T12:55:49.993Z,56.86
2022-09-20T12:58:24.371Z,56.90
2022-09-20T13:01:14.323Z,57.28
2022-09-20T13:03:41.764Z,56.92
2022-09-20T13:06:12.375Z,56.77
2022-09-20T13:08:48.024Z,57.02
2022-09-20T13:11:23.441Z,56.82
2022-09-20T13:14:07.082Z,56.98
2022-09-20T13:16:39.943Z,57.08
2022-09-20T13:19:12.123Z,56.52
2022-09-20T13:21:45.991Z,56.53
2022-09-20T13:24:19.104Z,56.73
2022-09-20T13:26:48.177Z,56.60
2022-09-20T13:29:33.551Z,56.73
2022-09-20T13:32:29.424Z,56.74
2022-09-20T13:35:18.318Z,56.55
2022-09-20T13:37:45.255Z,56.38
2022-09-20T13:40:25.441Z,56.24
2022-09-20T13:43:12.934Z,56.59
2022-09-20T13:45:42.865Z,56.68
2022-09-20T13:48:10.033Z,56.50
2022-09-20T13:50:42.013Z,56.43
2022-09-20T13:53:39.362Z,56.43
2022-09-20T13:56:20.056Z,56.17
2022-09-20T13:58:48.342Z,56.46
2022-09-20T14:01:32.756Z,56.08
2022-09-20T14:04:15.674Z,56.08
2022-09-20T14:06:42.851Z,56.61
2022-09-20T14:09:20.594Z,56.29
2022-09-20T14:11:48.000Z,56.39
2022-09-20T14:14:19.840Z,56.29
2022-09-20T14:16:49.937Z,56.42
2022-09-20T14:19:20.307Z,56.32
2022-09-20T14:21:48.395Z,56.06
2022-09-20T14:24:15.626Z,56.39
2022-09-20T14:27:00.195Z,56.53
2022-09-20T14:29:30.799Z,56.13
2022-09-20T14:32:00.535Z,56.08
2022-09-20T14:34:27.908Z,56.14
2022-09-20T14:37:06.330Z,55.91
2022-09-20T14:39:50.962Z,56.08
2022-09-20T14:42:28.867Z,55.97
2022-09-20T14:44:56.076Z,55.85
2022-09-20T14:47:38.485Z,56.11
2022-09-20T14:50:33.646Z,55.70
2022-09-20T14:53:22.339Z,56.34
2022-09-20T14:55:57.160Z,55.85
2022-09-20T14:58:26.259Z,56.27
2022-09-20T15:01:05.942Z,55.91
2022-09-20T15:03:39.050Z,55.93
2022-09-20T15:06:10.205Z,55.85
2022-09-20T15:08:39.871Z,55.93
2022-09-20T15:11:15.110Z,55.91
2022-09-20T15:13:42.324Z,55.80
2022-09-20T15:16:12.557Z,55.85
2022-09-20T15:18:41.683Z,56.04
2022-09-20T15:21:11.340Z,55.76
2022-09-20T15:23:39.303Z,56.14
2022-09-20T15:26:08.890Z,55.90
2022-09-20T15:28:35.823Z,55.86
2022-09-20T15:31:02.775Z,55.61
2022-09-20T15:33:32.078Z,55.92
2022-09-20T15:35:59.433Z,56.13
2022-09-20T15:38:27.103Z,56.03
2022-09-20T15:40:54.550Z,55.48
2022-09-20T15:43:28.010Z,55.81
2022-09-20T15:46:00.358Z,55.56
2022-09-20T15:48:29.992Z,55.55
2022-09-20T15:51:07.304Z,55.50
2022-09-20T15:53:39.831Z,55.95
2022-09-20T15:56:24.522Z,55.49
2022-09-20T15:58:58.976Z,55.64
2022-09-20T16:01:38.168Z,55.39
2022-09-20T16:04:17.317Z,55.34
2022-09-20T16:06:46.360Z,55.52
2022-09-20T16:09:13.767Z,55.29
2022-09-20T16:11:41.225Z,55.54
2022-09-20T16:14:08.298Z,55.49
2022-09-20T16:16:40.040Z,55.40
2022-09-20T16:19:20.694Z,55.58
2022-09-20T16:21:57.694Z,55.62
2022-09-20T16:24:28.129Z,55.44
2022-09-20T16:26:55.403Z,55.45
2022-09-20T16:29:22.521Z,55.58
2022-09-20T16:31:50.433Z,55.56
2022-09-20T16:34:36.625Z,55.23
2022-09-20T16:37:05.851Z,55.74
2022-09-20T16:39:33.426Z,55.28
2022-09-20T16:42:06.169Z,55.47
2022-09-20T16:44:35.787Z,55.49
2022-09-20T16:47:07.081Z,55.10
2022-09-20T16:49:35.425Z,55.37
2022-09-20T16:52:05.185Z,55.30
2022-09-20T16:54:33.754Z,55.13
2022-09-20T16:57:01.402Z,55.30
2022-09-20T16:59:28.344Z,55.40
2022-09-20T17:01:55.554Z,55.16
2022-09-20T17:04:22.524Z,55.13
2022-09-20T17:06:51.374Z,55.29
2022-09-20T17:09:18.859Z,55.51
2022-09-20T17:11:49.709Z,55.14
2022-09-20T17:14:18.812Z,55.38
2022-09-20T17:16:49.453Z,55.17
2022-09-20T17:19:19.177Z,55.42
2022-09-20T17:21:50.101Z,55.08
2022-09-20T17:24:19.320Z,55.24
2022-09-20T17:26:46.489Z,55.11
2022-09-20T17:29:16.229Z,55.01
2022-09-20T17:31:48.811Z,55.47
2022-09-20T17:34:21.494Z,55.10
2022-09-20T17:36:49.454Z,55.41
2022-09-20T17:39:16.898Z,55.40
2022-09-20T17:41:46.554Z,55.38
2022-09-20T17:44:14.130Z,55.11
2022-09-20T17:46:43.412Z,55.08
2022-09-20T17:49:15.123Z,54.89
2022-09-20T17:51:47.163Z,55.41
2022-09-20T17:54:15.378Z,55.03
2022-09-20T17:56:46.339Z,54.85
2022-09-20T17:59:16.229Z,55.47
2022-09-20T18:01:48.089Z,55.36
2022-09-20T18:04:15.933Z,55.12
2022-09-20T18:06:48.210Z,55.54
2022-09-20T18:09:17.273Z,55.10
2022-09-20T18:11:49.991Z,55.03
2022-09-20T18:14:20.341Z,55.12
2022-09-20T18:16:47.451Z,55.38
2022-09-20T18:19:16.212Z,55.38
2022-09-20T18:21:43.655Z,55.41
2022-09-20T18:24:11.428Z,55.21
2022-09-20T18:26:39.139Z,55.25
2022-09-20T18:29:11.842Z,55.21
2022-09-20T18:31:43.146Z,55.63
2022-09-20T18:34:18.044Z,55.62
2022-09-20T18:36:48.402Z,55.37
2022-09-20T18:39:15.378Z,55.46
2022-09-20T18:41:43.995Z,55.46
2022-09-20T18:44:14.192Z,55.50
2022-09-20T18:46:41.635Z,55.51
2022-09-20T18:49:10.232Z,55.53
2022-09-20T18:51:40.156Z,55.33
2022-09-20T18:54:10.594Z,55.50
2022-09-20T18:56:40.088Z,55.24
2022-09-20T18:59:13.447Z,55.67
2022-09-20T19:01:55.720Z,55.75
2022-09-20T19:04:41.153Z,55.70
2022-09-20T19:07:25.701Z,55.65
2022-09-20T19:10:01.655Z,55.40
2022-09-20T19:12:56.977Z,55.47
2022-09-20T19:15:45.969Z,55.67
2022-09-20T19:19:02.269Z,55.64
2022-09-20T19:21:50.653Z,55.38
2022-09-20T19:24:39.189Z,55.67
2022-09-20T19:27:08.904Z,55.47
2022-09-20T19:29:37.766Z,55.61
2022-09-20T19:32:06.198Z,55.46
2022-09-20T19:34:33.544Z,55.65
2022-09-20T19:37:18.839Z,55.63
2022-09-20T19:40:00.884Z,55.52
2022-09-20T19:42:41.634Z,55.71
2022-09-20T19:45:15.361Z,55.37
2022-09-20T19:47:55.459Z,55.50
2022-09-20T19:50:29.688Z,55.69
2022-09-20T19:52:56.903Z,55.56
2022-09-20T19:55:24.261Z,55.78
2022-09-20T19:57:51.336Z,55.68
2022-09-20T20:00:20.692Z,55.69
2022-09-20T20:02:48.371Z,55.44
2022-09-20T20:05:18.613Z,55.71
2022-09-20T20:08:03.755Z,55.46
2022-09-20T20:11:01.579Z,55.49
2022-09-20T20:13:59.038Z,55.65
2022-09-20T20:16:50.096Z,55.90
2022-09-20T20:19:30.183Z,55.32
2022-09-20T20:21:59.611Z,55.59
2022-09-20T20:24:52.744Z,55.69
2022-09-20T20:27:20.840Z,55.56
2022-09-20T20:29:48.028Z,55.41
2022-09-20T20:32:17.152Z,55.36
2022-09-20T20:34:44.464Z,55.81
2022-09-20T20:37:11.945Z,55.74
2022-09-20T20:39:41.951Z,55.60
2022-09-20T20:42:17.191Z,55.46
2022-09-20T20:44:45.606Z,55.58
2022-09-20T20:47:16.698Z,55.84
2022-09-20T20:49:43.683Z,55.69
2022-09-20T20:52:11.255Z,55.56
2022-09-20T20:54:39.860Z,55.45
2022-09-20T20:57:08.129Z,55.47
2022-09-20T20:59:35.062Z,55.79
2022-09-20T21:02:07.121Z,55.75
2022-09-20T21:04:38.125Z,55.74
2022-09-20T21:07:05.376Z,55.74
2022-09-20T21:09:32.245Z,55.83
2022-09-20T21:12:05.176Z,55.35
2022-09-20T21:14:37.325Z,55.30
2022-09-20T21:17:07.711Z,55.91
2022-09-20T21:19:36.319Z,55.70
2022-09-20T21:22:03.295Z,55.82
2022-09-20T21:24:35.771Z,55.64
2022-09-20T21:27:12.701Z,55.82
2022-09-20T21:29:42.939Z,55.65
2022-09-20T21:32:09.886Z,55.83
2022-09-20T21:34:40.731Z,55.72
2022-09-20T21:37:07.840Z,55.68
2022-09-20T21:39:36.731Z,55.54
2022-09-20T21:42:07.306Z,55.65
2022-09-20T21:44:34.525Z,55.93
2022-09-20T21:47:02.559Z,55.56
2022-09-20T21:49:32.497Z,55.50
2022-09-20T21:51:59.605Z,55.77
2022-09-20T21:54:28.355Z,55.73
2022-09-20T21:57:09.065Z,55.87
2022-09-20T21:59:35.914Z,55.67
2022-09-20T22:02:02.866Z,55.87
2022-09-20T22:04:31.730Z,55.66
2022-09-20T22:07:01.505Z,55.68
2022-09-20T22:09:28.413Z,55.64
2022-09-20T22:11:56.114Z,55.71
2022-09-20T22:14:26.873Z,55.87
2022-09-20T22:16:53.848Z,55.59
2022-09-20T22:19:20.908Z,55.73
2022-09-20T22:21:51.413Z,55.86
2022-09-20T22:24:20.046Z,55.83
2022-09-20T22:26:49.250Z,56.06
2022-09-20T22:29:23.585Z,55.80
2022-09-20T22:31:52.120Z,55.57
2022-09-20T22:34:25.841Z,55.89
2022-09-20T22:36:54.104Z,55.80
2022-09-20T22:39:26.969Z,55.64
2022-09-20T22:41:55.995Z,55.84
2022-09-20T22:44:24.336Z,55.86
2022-09-20T22:46:51.751Z,55.63
2022-09-20T22:49:21.243Z,56.02
2022-09-20T22:51:52.699Z,56.00
2022-09-20T22:54:19.793Z,55.79
2022-09-20T22:56:46.945Z,55.82
2022-09-20T22:59:16.043Z,55.82
2022-09-20T23:01:49.648Z,56.09
2022-09-20T23:04:19.933Z,55.61
2022-09-20T23:06:58.434Z,55.73
2022-09-20T23:09:31.088Z,55.75
2022-09-20T23:12:06.071Z,55.98
2022-09-20T23:14:36.807Z,56.24
2022-09-20T23:17:03.812Z,56.31
2022-09-20T23:19:30.689Z,55.79
2022-09-20T23:21:59.792Z,55.97
2022-09-20T23:24:30.720Z,55.89
2022-09-20T23:26:57.728Z,55.99
2022-09-20T23:29:26.738Z,55.99
2022-09-20T23:31:54.439Z,55.92
2022-09-20T23:34:26.760Z,55.95
2022-09-20T23:36:56.864Z,55.71
2022-09-20T23:39:26.494Z,55.52
2022-09-20T23:41:54.459Z,55.84
2022-09-20T23:44:26.933Z,56.04
2022-09-20T23:47:08.376Z,55.58
2022-09-20T23:49:56.079Z,55.66
2022-09-20T23:52:27.588Z,56.07
2022-09-20T23:55:02.898Z,55.70
2022-09-20T23:57:33.637Z,55.93
